createdAt,value
2023-02-19T00:01:31.922Z,6.18
2023-02-19T00:04:02.478Z,5.68
2023-02-19T00:06:31.016Z,5.10
2023-02-19T00:08:58.807Z,5.30
2023-02-19T00:11:27.745Z,4.57
2023-02-19T00:13:55.817Z,5.22
2023-02-19T00:16:25.320Z,4.30
2023-02-19T00:21:20.099Z,4.53
2023-02-19T00:24:07.836Z,4.10
2023-02-19T00:26:35.682Z,4.28
2023-02-19T00:29:03.428Z,4.00
2023-02-19T00:31:34.286Z,3.70
2023-02-19T00:34:03.198Z,3.65
2023-02-19T00:36:31.242Z,3.58
2023-02-19T00:38:58.894Z,3.50
2023-02-19T00:41:26.707Z,3.85
2023-02-19T00:43:58.157Z,3.45
2023-02-19T00:46:26.949Z,3.55
2023-02-19T00:48:54.554Z,3.80
2023-02-19T00:51:22.667Z,3.88
2023-02-19T00:53:50.263Z,3.45
2023-02-19T00:56:18.019Z,4.43
2023-02-19T00:58:45.367Z,4.20
2023-02-19T01:01:12.849Z,4.05
2023-02-19T01:03:40.668Z,4.38
2023-02-19T01:06:08.846Z,3.90
2023-02-19T01:08:36.676Z,4.30
2023-02-19T01:11:05.222Z,4.72
2023-02-19T01:13:32.901Z,4.60
2023-02-19T01:16:04.661Z,4.70
2023-02-19T01:18:33.489Z,4.53
2023-02-19T01:21:01.018Z,4.57
2023-02-19T01:23:28.360Z,4.47
2023-02-19T01:25:55.632Z,5.38
2023-02-19T01:28:23.342Z,4.45
2023-02-19T01:30:50.629Z,5.05
2023-02-19T01:33:18.106Z,5.60
2023-02-19T01:35:45.460Z,5.25
2023-02-19T01:38:13.891Z,5.28
2023-02-19T01:40:41.299Z,5.22
2023-02-19T01:43:15.931Z,5.07
2023-02-19T01:45:47.201Z,4.50
2023-02-19T01:48:16.470Z,4.75
2023-02-19T01:50:46.529Z,4.43
2023-02-19T01:53:15.333Z,4.60
2023-02-19T01:55:43.330Z,4.65
2023-02-19T01:58:10.959Z,4.88
2023-02-19T02:00:39.066Z,4.63
2023-02-19T02:03:06.804Z,4.80
2023-02-19T02:05:34.373Z,5.03
2023-02-19T02:08:22.275Z,4.60
2023-02-19T02:10:50.790Z,4.95
2023-02-19T02:13:18.604Z,4.30
2023-02-19T02:16:06.310Z,4.45
2023-02-19T02:19:06.021Z,4.25
2023-02-19T02:21:33.438Z,3.92
2023-02-19T02:24:06.939Z,4.13
2023-02-19T02:26:43.589Z,4.05
2023-02-19T02:29:20.288Z,3.88
2023-02-19T02:31:53.264Z,4.13
2023-02-19T02:34:31.115Z,3.50
2023-02-19T02:36:59.320Z,3.70
2023-02-19T02:39:30.540Z,3.17
2023-02-19T02:42:18.268Z,3.50
2023-02-19T02:45:13.293Z,3.17
2023-02-19T02:47:51.289Z,3.38
2023-02-19T02:50:26.420Z,3.10
2023-02-19T02:53:16.174Z,2.75
2023-02-19T02:55:45.706Z,3.22
2023-02-19T02:58:13.894Z,3.10
2023-02-19T03:01:02.622Z,2.70
2023-02-19T03:05:59.567Z,3.38
2023-02-19T03:08:29.518Z,2.67
2023-02-19T03:11:21.490Z,2.92
2023-02-19T03:14:08.902Z,2.65
2023-02-19T03:16:57.252Z,2.80
2023-02-19T03:19:26.508Z,3.05
2023-02-19T03:22:01.521Z,3.20
2023-02-19T03:24:50.475Z,2.80
2023-02-19T03:27:20.141Z,3.00
2023-02-19T03:29:51.995Z,3.25
2023-02-19T03:34:54.746Z,3.30
2023-02-19T03:37:34.235Z,3.10
2023-02-19T03:40:01.700Z,3.58
2023-02-19T03:42:29.252Z,3.38
2023-02-19T03:45:15.008Z,3.15
2023-02-19T03:48:08.196Z,3.45
2023-02-19T03:50:49.952Z,3.08
2023-02-19T03:53:23.819Z,3.35
2023-02-19T03:55:51.983Z,3.30
2023-02-19T03:58:28.665Z,3.50
2023-02-19T04:01:03.143Z,3.17
2023-02-19T04:03:49.481Z,3.00
2023-02-19T04:06:19.214Z,2.83
2023-02-19T04:08:48.936Z,3.42
2023-02-19T04:11:19.513Z,3.50
2023-02-19T04:14:08.705Z,3.25
2023-02-19T04:16:37.938Z,3.58
2023-02-19T04:19:08.248Z,3.25
2023-02-19T04:21:38.065Z,3.20
2023-02-19T04:24:09.657Z,3.42
2023-02-19T04:26:39.206Z,3.05
2023-02-19T04:29:06.717Z,3.10
2023-02-19T04:31:35.749Z,2.80
2023-02-19T04:34:03.995Z,3.20
2023-02-19T04:36:34.831Z,3.28
2023-02-19T04:39:02.554Z,3.58
2023-02-19T04:41:29.939Z,3.30
2023-02-19T04:43:57.244Z,3.58
2023-02-19T04:46:24.578Z,3.15
2023-02-19T04:48:51.969Z,3.13
2023-02-19T04:51:19.259Z,3.08
2023-02-19T04:53:46.576Z,3.05
2023-02-19T04:56:15.597Z,3.03
2023-02-19T04:58:43.410Z,3.83
2023-02-19T05:01:11.286Z,2.95
2023-02-19T05:03:38.852Z,2.78
2023-02-19T05:06:07.271Z,3.22
2023-02-19T05:08:34.560Z,3.10
2023-02-19T05:11:03.229Z,2.75
2023-02-19T05:13:30.894Z,2.60
2023-02-19T05:16:02.444Z,2.90
2023-02-19T05:18:32.915Z,2.85
2023-02-19T05:21:01.545Z,2.97
2023-02-19T05:23:40.111Z,2.88
2023-02-19T05:26:07.884Z,2.92
2023-02-19T05:28:35.587Z,2.85
2023-02-19T05:31:07.296Z,3.17
2023-02-19T05:33:34.607Z,2.80
2023-02-19T05:36:04.967Z,3.08
2023-02-19T05:38:33.623Z,2.72
2023-02-19T05:41:17.309Z,3.00
2023-02-19T05:43:45.631Z,2.90
2023-02-19T05:46:14.444Z,3.08
2023-02-19T05:48:42.163Z,3.33
2023-02-19T05:51:11.991Z,3.08
2023-02-19T05:53:40.346Z,2.90
2023-02-19T05:56:26.539Z,3.20
2023-02-19T05:58:54.659Z,3.20
2023-02-19T06:01:23.178Z,2.85
2023-02-19T06:03:50.522Z,3.33
2023-02-19T06:06:18.872Z,3.45
2023-02-19T06:08:46.537Z,3.08
2023-02-19T06:11:13.931Z,3.00
2023-02-19T06:13:41.308Z,3.35
2023-02-19T06:16:09.248Z,3.30
2023-02-19T06:18:36.882Z,3.33
2023-02-19T06:21:05.225Z,3.28
2023-02-19T06:23:32.773Z,3.30
2023-02-19T06:26:26.383Z,3.50
2023-02-19T06:28:54.795Z,3.65
2023-02-19T06:31:22.930Z,3.33
2023-02-19T06:33:55.170Z,3.00
2023-02-19T06:36:22.801Z,3.72
2023-02-19T06:38:50.600Z,3.30
2023-02-19T06:41:18.026Z,3.22
2023-02-19T06:43:46.603Z,3.55
2023-02-19T06:46:14.392Z,3.25
2023-02-19T06:48:42.674Z,3.72
2023-02-19T06:51:14.146Z,3.38
2023-02-19T06:53:41.371Z,3.25
2023-02-19T06:56:22.355Z,3.60
2023-02-19T06:58:49.606Z,3.63
2023-02-19T07:01:17.019Z,4.03
2023-02-19T07:03:44.500Z,3.58
2023-02-19T07:06:11.786Z,4.22
2023-02-19T07:08:39.098Z,3.95
2023-02-19T07:11:06.550Z,4.22
2023-02-19T07:13:33.878Z,3.60
2023-02-19T07:16:02.083Z,4.07
2023-02-19T07:18:30.576Z,4.20
2023-02-19T07:21:08.990Z,3.75
2023-02-19T07:23:36.666Z,3.85
2023-02-19T07:26:04.252Z,4.00
2023-02-19T07:28:31.632Z,3.60
2023-02-19T07:31:02.608Z,3.88
2023-02-19T07:33:30.014Z,4.15
2023-02-19T07:35:57.718Z,3.92
2023-02-19T07:38:25.596Z,4.28
2023-02-19T07:40:57.163Z,3.90
2023-02-19T07:43:24.979Z,3.97
2023-02-19T07:45:53.430Z,4.25
2023-02-19T07:48:21.278Z,3.88
2023-02-19T07:51:07.775Z,4.03
2023-02-19T07:53:35.827Z,4.55
2023-02-19T07:56:04.349Z,5.00
2023-02-19T07:58:31.880Z,4.90
2023-02-19T08:01:07.014Z,5.28
2023-02-19T08:03:34.454Z,4.88
2023-02-19T08:06:04.020Z,5.10
2023-02-19T08:08:31.610Z,5.13
2023-02-19T08:11:21.485Z,5.65
2023-02-19T08:13:50.012Z,4.90
2023-02-19T08:16:29.760Z,5.47
2023-02-19T08:19:04.906Z,4.93
2023-02-19T08:24:40.458Z,5.53
2023-02-19T08:27:07.880Z,5.47
2023-02-19T08:29:35.198Z,5.38
2023-02-19T08:32:02.566Z,5.38
2023-02-19T08:34:29.966Z,5.05
2023-02-19T08:36:57.374Z,5.57
2023-02-19T08:39:24.772Z,5.32
2023-02-19T08:41:52.132Z,5.50
2023-02-19T08:44:19.488Z,5.82
2023-02-19T08:46:46.898Z,5.72
2023-02-19T08:49:14.357Z,5.93
2023-02-19T08:51:41.693Z,5.75
2023-02-19T08:54:09.083Z,5.78
2023-02-19T08:56:36.456Z,6.20
2023-02-19T08:59:03.987Z,6.05
2023-02-19T09:01:31.356Z,6.10
2023-02-19T09:03:59.000Z,6.03
2023-02-19T09:06:26.324Z,6.05
2023-02-19T09:08:53.583Z,6.93
2023-02-19T09:11:21.036Z,6.57
2023-02-19T09:13:48.439Z,6.60
2023-02-19T09:16:15.790Z,6.10
2023-02-19T09:18:43.205Z,6.70
2023-02-19T09:21:11.094Z,6.13
2023-02-19T09:23:38.737Z,6.70
2023-02-19T09:26:09.316Z,5.97
2023-02-19T09:28:37.339Z,7.10
2023-02-19T09:31:23.057Z,6.15
2023-02-19T09:33:50.479Z,5.90
2023-02-19T09:36:18.864Z,5.45
2023-02-19T09:38:46.264Z,5.80
2023-02-19T09:41:32.947Z,5.25
2023-02-19T09:44:01.669Z,5.18
2023-02-19T09:46:41.043Z,5.13
2023-02-19T09:49:16.417Z,4.38
2023-02-19T09:51:46.256Z,4.10
2023-02-19T09:54:31.252Z,4.20
2023-02-19T09:57:03.217Z,3.72
2023-02-19T09:59:50.980Z,4.00
2023-02-19T10:02:20.236Z,3.90
2023-02-19T10:07:19.967Z,3.60
2023-02-19T10:09:51.982Z,2.83
2023-02-19T10:12:25.659Z,3.47
2023-02-19T10:14:56.446Z,3.28
2023-02-19T10:17:25.042Z,3.88
2023-02-19T10:19:52.819Z,2.00
2023-02-19T10:22:20.453Z,2.33
2023-02-19T10:24:51.887Z,1.98
2023-02-19T10:27:19.646Z,1.60
2023-02-19T10:29:48.523Z,1.70
2023-02-19T10:32:24.144Z,1.80
2023-02-19T10:35:08.906Z,1.65
2023-02-19T10:37:36.925Z,1.65
2023-02-19T10:40:04.501Z,1.55
2023-02-19T10:42:33.376Z,1.30
2023-02-19T10:45:02.897Z,1.50
2023-02-19T10:47:31.175Z,1.63
2023-02-19T10:49:59.848Z,1.40
2023-02-19T10:52:29.297Z,1.50
2023-02-19T10:55:15.535Z,2.83
2023-02-19T10:57:43.050Z,3.33
2023-02-19T11:00:10.441Z,3.25
2023-02-19T11:02:37.824Z,3.30
2023-02-19T11:05:08.144Z,3.20
2023-02-19T11:07:39.748Z,3.40
2023-02-19T11:10:11.985Z,3.00
2023-02-19T11:12:39.429Z,2.95
2023-02-19T11:15:42.457Z,2.20
2023-02-19T11:18:17.513Z,2.30
2023-02-19T11:21:04.665Z,2.25
2023-02-19T11:23:31.903Z,1.88
2023-02-19T11:26:04.267Z,1.40
2023-02-19T11:28:36.621Z,1.67
2023-02-19T11:31:15.375Z,1.75
2023-02-19T11:33:55.634Z,2.13
2023-02-19T11:36:34.572Z,1.90
2023-02-19T11:39:22.100Z,2.00
2023-02-19T11:41:58.566Z,1.67
2023-02-19T11:44:35.081Z,1.50
2023-02-19T11:47:21.123Z,1.33
2023-02-19T11:49:48.428Z,1.33
2023-02-19T11:52:34.719Z,1.60
2023-02-19T11:55:08.076Z,1.50
2023-02-19T11:57:47.526Z,1.40
2023-02-19T12:00:14.895Z,1.38
2023-02-19T12:02:57.645Z,1.40
2023-02-19T12:05:35.002Z,1.25
2023-02-19T12:08:22.346Z,1.30
2023-02-19T12:10:58.192Z,1.67
2023-02-19T12:13:43.899Z,1.40
2023-02-19T12:16:13.523Z,1.60
2023-02-19T12:18:43.896Z,1.63
2023-02-19T12:21:29.566Z,1.58
2023-02-19T12:24:15.460Z,1.65
2023-02-19T12:27:01.658Z,1.55
2023-02-19T12:29:35.252Z,1.27
2023-02-19T12:32:14.779Z,1.10
2023-02-19T12:35:01.007Z,1.15
2023-02-19T12:37:48.842Z,1.50
2023-02-19T12:40:34.960Z,1.52
2023-02-19T12:43:19.607Z,1.42
2023-02-19T12:45:59.018Z,1.60
2023-02-19T12:48:46.348Z,1.80
2023-02-19T12:51:20.479Z,2.03
2023-02-19T12:54:06.831Z,2.40
2023-02-19T12:56:37.193Z,1.63
2023-02-19T12:59:07.423Z,1.77
2023-02-19T13:01:41.793Z,1.98
2023-02-19T13:04:09.182Z,1.90
2023-02-19T13:06:46.127Z,2.10
2023-02-19T13:09:19.475Z,2.10
2023-02-19T13:11:51.850Z,1.83
2023-02-19T13:14:31.588Z,2.00
2023-02-19T13:17:03.881Z,1.58
2023-02-19T13:19:33.265Z,1.73
2023-02-19T13:24:47.422Z,1.40
2023-02-19T13:27:38.747Z,1.70
2023-02-19T13:30:07.638Z,1.40
2023-02-19T13:32:56.963Z,1.70
2023-02-19T13:35:43.136Z,1.77
2023-02-19T13:38:12.297Z,1.73
2023-02-19T13:40:43.744Z,1.55
2023-02-19T13:43:30.407Z,1.60
2023-02-19T13:45:59.656Z,1.52
2023-02-19T13:48:32.568Z,1.33
2023-02-19T13:51:23.907Z,1.58
2023-02-19T13:53:58.719Z,1.35
2023-02-19T13:56:35.022Z,1.40
2023-02-19T13:59:05.668Z,1.42
2023-02-19T14:01:51.633Z,1.40
2023-02-19T14:04:22.186Z,1.40
2023-02-19T14:07:04.877Z,1.60
2023-02-19T14:09:39.865Z,1.40
2023-02-19T14:12:10.537Z,1.65
2023-02-19T14:14:37.923Z,1.52
2023-02-19T14:17:17.549Z,1.40
2023-02-19T14:19:49.741Z,1.40
2023-02-19T14:22:35.556Z,1.40
2023-02-19T16:22:20.718Z,3.45
2023-02-19T16:24:50.103Z,2.53
2023-02-19T16:29:51.286Z,2.00
2023-02-19T16:32:18.814Z,1.83
2023-02-19T16:34:47.677Z,2.10
2023-02-19T16:37:30.304Z,1.80
2023-02-19T16:40:20.578Z,1.80
2023-02-19T16:42:51.649Z,1.63
2023-02-19T16:45:18.935Z,2.00
2023-02-19T16:47:51.113Z,1.90
2023-02-19T16:50:20.030Z,1.60
2023-02-19T16:53:00.637Z,1.70
2023-02-19T16:55:29.301Z,2.20
2023-02-19T16:57:56.551Z,2.10
2023-02-19T17:00:28.213Z,2.30
2023-02-19T17:02:56.661Z,2.15
2023-02-19T17:05:24.694Z,2.03
2023-02-19T17:07:52.136Z,8.25
2023-02-19T17:10:23.875Z,4.75
2023-02-19T17:12:51.762Z,4.28
2023-02-19T17:15:19.063Z,4.18
2023-02-19T17:17:46.428Z,3.03
2023-02-19T17:20:16.751Z,3.10
2023-02-19T17:22:44.515Z,2.10
2023-02-19T17:25:11.915Z,2.50
2023-02-19T17:27:39.349Z,2.30
2023-02-19T17:30:27.090Z,2.28
2023-02-19T17:32:54.375Z,2.67
2023-02-19T17:35:21.829Z,2.72
2023-02-19T17:37:49.190Z,2.30
2023-02-19T17:40:31.839Z,2.70
2023-02-19T17:43:00.236Z,2.38
2023-02-19T17:45:27.692Z,2.25
2023-02-19T17:47:55.048Z,2.58
2023-02-19T17:50:24.440Z,2.45
2023-02-19T17:52:51.744Z,2.42
2023-02-19T17:55:19.322Z,2.50
2023-02-19T17:57:46.941Z,2.30
2023-02-19T18:00:15.806Z,2.20
2023-02-19T18:02:43.090Z,2.40
2023-02-19T18:05:10.491Z,2.15
2023-02-19T18:07:38.526Z,2.10
2023-02-19T18:10:06.821Z,2.03
2023-02-19T18:12:34.160Z,1.88
2023-02-19T18:15:01.447Z,2.05
2023-02-19T18:17:28.653Z,2.10
2023-02-19T18:19:55.931Z,1.73
2023-02-19T18:22:23.258Z,1.90
2023-02-19T18:24:51.646Z,1.60
2023-02-19T18:27:20.344Z,1.60
2023-02-19T18:29:56.996Z,1.73
2023-02-19T18:32:25.165Z,1.67
2023-02-19T18:34:53.079Z,1.70
2023-02-19T18:37:21.081Z,1.65
2023-02-19T18:39:48.576Z,1.80
2023-02-19T18:42:16.206Z,1.90
2023-02-19T18:44:43.883Z,1.60
2023-02-19T18:47:11.996Z,1.60
2023-02-19T18:49:39.286Z,2.10
2023-02-19T18:52:07.066Z,1.80
2023-02-19T18:54:34.432Z,1.90
2023-02-19T18:57:03.720Z,1.90
2023-02-19T18:59:31.628Z,2.00
2023-02-19T19:01:58.950Z,2.70
2023-02-19T19:04:26.265Z,2.33
2023-02-19T19:06:53.572Z,2.38
2023-02-19T19:09:20.899Z,2.30
2023-02-19T19:11:48.213Z,2.20
2023-02-19T19:14:15.549Z,2.03
2023-02-19T19:16:43.081Z,2.47
2023-02-19T19:19:10.358Z,2.10
2023-02-19T19:21:37.625Z,2.08
2023-02-19T19:24:05.049Z,2.20
2023-02-19T19:26:32.366Z,2.20
2023-02-19T19:28:59.676Z,1.90
2023-02-19T19:31:27.493Z,1.80
2023-02-19T19:33:54.798Z,2.00
2023-02-19T19:36:23.276Z,2.22
2023-02-19T19:38:50.573Z,2.10
2023-02-19T19:41:18.400Z,1.90
2023-02-19T19:43:46.002Z,1.90
2023-02-19T19:46:18.857Z,1.65
2023-02-19T19:48:46.794Z,1.88
2023-02-19T19:51:14.282Z,1.80
2023-02-19T19:53:41.566Z,2.10
2023-02-19T19:56:11.628Z,1.92
2023-02-19T19:58:40.290Z,2.10
2023-02-19T20:01:07.892Z,2.00
2023-02-19T20:03:35.139Z,2.10
2023-02-19T20:06:02.448Z,1.77
2023-02-19T20:08:29.744Z,1.83
2023-02-19T20:10:57.126Z,1.70
2023-02-19T20:13:26.377Z,1.90
2023-02-19T20:15:53.710Z,1.73
2023-02-19T20:18:21.562Z,1.60
2023-02-19T20:20:48.838Z,1.58
2023-02-19T20:23:16.226Z,1.85
2023-02-19T20:25:43.494Z,1.63
2023-02-19T20:28:10.802Z,1.63
2023-02-19T20:30:39.053Z,1.90
2023-02-19T20:33:06.383Z,2.35
2023-02-19T20:35:33.753Z,1.95
2023-02-19T20:38:01.031Z,2.30
2023-02-19T20:40:30.512Z,2.00
2023-02-19T20:42:59.269Z,2.22
2023-02-19T20:45:26.516Z,2.30
2023-02-19T20:47:53.759Z,2.13
2023-02-19T20:50:23.210Z,2.28
2023-02-19T20:55:17.721Z,2.33
2023-02-19T20:57:45.000Z,2.60
2023-02-19T21:00:13.804Z,2.97
2023-02-19T21:02:42.494Z,2.45
2023-02-19T21:05:10.219Z,3.08
2023-02-19T21:07:37.550Z,3.22
2023-02-19T21:10:04.902Z,3.25
2023-02-19T21:12:33.600Z,3.55
2023-02-19T21:15:00.846Z,3.67
2023-02-19T21:17:28.136Z,3.55
2023-02-19T21:19:55.372Z,3.72
2023-02-19T21:22:22.718Z,3.38
2023-02-19T21:24:52.083Z,3.60
2023-02-19T21:27:19.748Z,3.55
2023-02-19T21:29:47.625Z,3.35
2023-02-19T21:32:15.330Z,3.67
2023-02-19T21:34:43.061Z,3.40
2023-02-19T21:37:10.475Z,3.72
2023-02-19T21:39:38.801Z,3.25
2023-02-19T21:42:06.102Z,3.22
2023-02-19T21:44:33.811Z,3.00
2023-02-19T21:47:01.182Z,2.95
2023-02-19T21:49:28.521Z,3.22
2023-02-19T21:51:55.817Z,3.22
2023-02-19T21:54:24.770Z,3.20
2023-02-19T21:56:52.546Z,2.60
2023-02-19T21:59:20.662Z,3.00
2023-02-19T22:01:48.144Z,2.75
2023-02-19T22:04:16.763Z,2.90
2023-02-19T22:06:44.576Z,3.00
2023-02-19T22:09:12.697Z,3.00
2023-02-19T22:11:40.169Z,2.67
2023-02-19T22:14:07.449Z,3.20
2023-02-19T22:16:34.921Z,3.22
2023-02-19T22:19:02.185Z,2.97
2023-02-19T22:21:32.545Z,3.22
2023-02-19T22:24:00.146Z,3.08
2023-02-19T22:26:29.205Z,3.03
2023-02-19T22:28:57.991Z,3.08
2023-02-19T22:31:25.977Z,3.10
2023-02-19T22:33:53.826Z,3.05
2023-02-19T22:36:31.124Z,3.65
2023-02-19T22:38:58.472Z,3.13
2023-02-19T22:41:26.334Z,3.53
2023-02-19T22:43:57.335Z,3.63
2023-02-19T22:46:26.412Z,3.47
2023-02-19T22:48:53.722Z,3.60
2023-02-19T22:51:22.389Z,3.20
2023-02-19T22:53:54.092Z,3.63
2023-02-19T22:56:22.460Z,3.80
2023-02-19T22:58:49.914Z,3.58
2023-02-19T23:01:17.391Z,3.28
2023-02-19T23:03:50.558Z,4.20
2023-02-19T23:06:18.305Z,3.60
2023-02-19T23:08:45.574Z,4.00
2023-02-19T23:11:13.262Z,3.40
2023-02-19T23:13:43.417Z,4.13
2023-02-19T23:16:11.496Z,4.07
2023-02-19T23:18:39.088Z,4.00
2023-02-19T23:21:06.370Z,4.72
2023-02-19T23:23:33.614Z,3.92
2023-02-19T23:26:00.844Z,3.83
2023-02-19T23:28:28.141Z,4.22
2023-02-19T23:30:55.540Z,4.88
2023-02-19T23:33:22.860Z,4.68
2023-02-19T23:35:50.068Z,5.05
2023-02-19T23:38:17.327Z,5.05
2023-02-19T23:40:45.314Z,4.70
2023-02-19T23:43:12.599Z,5.13
2023-02-19T23:45:39.842Z,5.13
2023-02-19T23:48:07.106Z,4.95
2023-02-19T23:50:34.359Z,5.18
2023-02-19T23:53:01.724Z,5.60
2023-02-19T23:55:28.933Z,5.40
2023-02-19T23:57:56.203Z,5.50
